createdAt,value
2023-04-22T00:01:04.305Z,99.90
2023-04-22T00:03:34.141Z,99.90
2023-04-22T00:06:01.949Z,99.90
2023-04-22T00:08:29.325Z,99.90
2023-04-22T00:10:57.131Z,99.90
2023-04-22T00:13:24.329Z,99.90
2023-04-22T00:15:51.908Z,99.90
2023-04-22T00:18:19.279Z,99.90
2023-04-22T00:20:46.902Z,99.90
2023-04-22T00:23:14.094Z,99.90
2023-04-22T00:25:41.725Z,99.90
2023-04-22T00:28:08.941Z,99.90
2023-04-22T00:30:36.581Z,99.90
2023-04-22T00:33:04.314Z,99.90
2023-04-22T00:35:31.777Z,99.90
2023-04-22T00:38:01.539Z,99.90
2023-04-22T00:40:29.044Z,99.90
2023-04-22T00:42:58.092Z,99.90
2023-04-22T00:45:26.746Z,99.90
2023-04-22T00:47:54.275Z,99.90
2023-04-22T00:50:21.783Z,99.90
2023-04-22T00:52:49.514Z,99.90
2023-04-22T00:55:17.165Z,99.90
2023-04-22T00:57:44.743Z,99.90
2023-04-22T01:00:13.319Z,99.90
2023-04-22T01:02:41.147Z,99.90
2023-04-22T01:05:09.705Z,99.90
2023-04-22T01:07:37.438Z,99.90
2023-04-22T01:10:05.892Z,99.90
2023-04-22T01:12:33.189Z,99.90
2023-04-22T01:15:04.307Z,99.90
2023-04-22T01:17:33.725Z,99.90
2023-04-22T01:20:04.344Z,99.90
2023-04-22T01:22:37.379Z,99.90
2023-04-22T01:25:05.220Z,99.90
2023-04-22T01:27:32.585Z,99.90
2023-04-22T01:30:00.836Z,99.90
2023-04-22T01:32:30.740Z,99.90
2023-04-22T01:34:59.081Z,99.90
2023-04-22T01:37:28.452Z,99.90
2023-04-22T01:39:57.117Z,99.90
2023-04-22T01:42:25.279Z,99.90
2023-04-22T01:44:53.529Z,99.90
2023-04-22T01:47:20.734Z,99.90
2023-04-22T01:49:48.292Z,99.90
2023-04-22T01:52:16.025Z,99.90
2023-04-22T01:54:43.491Z,99.90
2023-04-22T01:57:14.172Z,99.90
2023-04-22T01:59:42.159Z,99.90
2023-04-22T02:02:09.704Z,99.90
2023-04-22T02:04:37.770Z,99.90
2023-04-22T02:07:05.878Z,99.90
2023-04-22T02:09:37.659Z,99.90
2023-04-22T02:12:05.533Z,99.90
2023-04-22T02:14:33.005Z,99.90
2023-04-22T02:17:03.574Z,99.90
2023-04-22T02:19:31.249Z,99.90
2023-04-22T02:21:58.538Z,99.90
2023-04-22T02:24:26.818Z,99.90
2023-04-22T02:26:54.051Z,99.90
2023-04-22T02:29:21.853Z,99.90
2023-04-22T02:31:49.082Z,99.90
2023-04-22T02:34:16.953Z,99.90
2023-04-22T02:36:44.363Z,99.90
2023-04-22T02:39:11.948Z,99.90
2023-04-22T02:41:39.258Z,99.90
2023-04-22T02:44:06.868Z,99.90
2023-04-22T02:46:34.317Z,99.90
2023-04-22T02:49:02.080Z,99.90
2023-04-22T02:51:29.311Z,99.90
2023-04-22T02:53:56.951Z,99.90
2023-04-22T02:56:24.129Z,99.90
2023-04-22T02:58:51.574Z,99.90
2023-04-22T03:01:18.828Z,99.90
2023-04-22T03:03:47.061Z,99.90
2023-04-22T03:06:20.812Z,99.90
2023-04-22T03:08:48.910Z,99.90
2023-04-22T03:11:16.152Z,99.90
2023-04-22T03:13:43.664Z,99.90
2023-04-22T03:16:11.201Z,99.90
2023-04-22T03:18:39.569Z,99.90
2023-04-22T03:21:07.834Z,99.90
2023-04-22T03:23:35.615Z,99.90
2023-04-22T03:26:03.502Z,99.90
2023-04-22T03:28:31.152Z,99.90
2023-04-22T03:30:58.396Z,99.90
2023-04-22T03:33:25.951Z,99.90
2023-04-22T03:36:03.242Z,99.90
2023-04-22T03:38:31.363Z,99.90
2023-04-22T03:40:58.581Z,99.90
2023-04-22T03:43:39.329Z,99.90
2023-04-22T03:46:09.922Z,99.90
2023-04-22T03:48:42.902Z,99.90
2023-04-22T03:51:18.182Z,99.90
2023-04-22T03:53:45.948Z,99.90
2023-04-22T03:56:18.168Z,99.90
2023-04-22T03:58:47.344Z,99.90
2023-04-22T04:01:16.103Z,99.90
2023-04-22T04:03:47.571Z,99.90
2023-04-22T04:06:16.556Z,99.90
2023-04-22T04:08:44.210Z,99.90
2023-04-22T04:11:11.814Z,99.90
2023-04-22T04:13:40.319Z,99.90
2023-04-22T04:16:27.379Z,99.90
2023-04-22T04:19:02.258Z,99.90
2023-04-22T04:21:33.453Z,99.90
2023-04-22T04:24:01.398Z,99.90
2023-04-22T04:26:32.535Z,99.90
2023-04-22T04:29:08.452Z,99.90
2023-04-22T04:31:41.960Z,99.90
2023-04-22T04:34:09.778Z,99.90
2023-04-22T04:36:40.931Z,99.90
2023-04-22T04:39:18.919Z,99.90
2023-04-22T04:41:49.042Z,99.90
2023-04-22T04:44:17.520Z,99.90
2023-04-22T04:46:46.799Z,99.90
2023-04-22T04:49:14.531Z,99.90
2023-04-22T04:51:52.391Z,99.90
2023-04-22T04:54:20.094Z,99.90
2023-04-22T04:56:47.446Z,99.90
2023-04-22T04:59:15.184Z,99.90
2023-04-22T05:01:43.192Z,99.90
2023-04-22T05:04:13.783Z,99.90
2023-04-22T05:06:44.556Z,99.90
2023-04-22T05:09:13.829Z,99.90
2023-04-22T05:11:42.244Z,99.90
2023-04-22T05:14:15.353Z,99.90
2023-04-22T05:16:43.583Z,99.90
2023-04-22T05:19:11.214Z,99.90
2023-04-22T05:21:38.566Z,99.90
2023-04-22T05:24:06.324Z,99.90
2023-04-22T05:26:34.081Z,99.90
2023-04-22T05:29:04.425Z,99.90
2023-04-22T05:31:31.934Z,99.90
2023-04-22T05:33:59.520Z,99.90
2023-04-22T05:36:29.795Z,99.90
2023-04-22T05:38:58.963Z,99.90
2023-04-22T05:41:26.828Z,99.90
2023-04-22T05:43:56.796Z,99.90
2023-04-22T05:46:24.973Z,99.90
2023-04-22T05:48:52.836Z,99.90
2023-04-22T05:51:46.269Z,99.30
2023-04-22T05:54:17.667Z,98.00
2023-04-22T05:56:45.221Z,96.80
2023-04-22T05:59:13.114Z,95.80
2023-04-22T06:01:40.576Z,94.40
2023-04-22T06:04:11.901Z,92.60
2023-04-22T06:06:42.578Z,91.60
2023-04-22T06:09:10.187Z,90.00
2023-04-22T06:11:40.824Z,87.80
2023-04-22T06:14:09.475Z,84.50
2023-04-22T06:16:37.993Z,82.30
2023-04-22T06:19:09.166Z,81.10
2023-04-22T06:21:38.662Z,79.90
2023-04-22T06:24:06.621Z,78.80
2023-04-22T13:00:49.542Z,73.50
2023-04-22T13:05:46.116Z,41.20
2023-04-22T13:08:13.309Z,41.80
2023-04-22T13:18:07.064Z,42.60
2023-04-22T13:23:02.415Z,44.60
2023-04-22T13:25:30.052Z,43.80
2023-04-22T13:27:57.207Z,43.00
2023-04-22T13:30:24.676Z,42.70
2023-04-22T13:32:52.070Z,42.90
2023-04-22T13:35:19.959Z,42.80
2023-04-22T13:50:08.405Z,42.70
2023-04-22T13:52:35.716Z,43.70
2023-04-22T13:55:04.061Z,42.30
2023-04-22T13:57:31.738Z,42.30
2023-04-22T13:59:59.426Z,39.90
2023-04-22T14:14:46.145Z,41.50
2023-04-22T14:24:39.150Z,40.50
2023-04-22T14:36:59.500Z,40.00
2023-04-22T14:39:27.185Z,41.60
2023-04-22T14:49:20.107Z,43.00
2023-04-22T15:14:04.717Z,38.10
2023-04-22T15:16:32.234Z,28.00
2023-04-22T15:19:00.182Z,26.80
2023-04-22T15:21:27.385Z,26.50
2023-04-22T15:23:55.008Z,26.80
2023-04-22T15:26:22.256Z,26.50
2023-04-22T15:28:50.946Z,26.20
2023-04-22T15:31:20.731Z,26.40
2023-04-22T15:33:48.687Z,26.20
2023-04-22T15:36:18.312Z,25.90
2023-04-22T15:38:45.896Z,26.50
2023-04-22T15:41:13.505Z,25.60
2023-04-22T15:43:40.996Z,25.60
2023-04-22T15:46:09.724Z,25.70
2023-04-22T15:48:37.358Z,25.70
2023-04-22T15:51:04.632Z,25.40
2023-04-22T15:53:32.246Z,25.40
2023-04-22T15:56:00.551Z,25.40
2023-04-22T15:58:30.582Z,25.20
2023-04-22T16:01:11.527Z,25.50
2023-04-22T16:03:46.934Z,25.40
2023-04-22T16:06:14.511Z,25.40
2023-04-22T16:08:42.092Z,25.60
2023-04-22T16:13:40.052Z,24.90
2023-04-22T17:17:53.801Z,24.90
2023-04-22T17:20:21.040Z,29.00
2023-04-22T17:22:48.606Z,29.40
2023-04-22T17:25:15.719Z,29.50
2023-04-22T17:27:43.480Z,30.30
2023-04-22T17:30:11.542Z,32.00
2023-04-22T17:32:39.343Z,33.00
2023-04-22T17:35:07.329Z,34.20
2023-04-22T17:37:35.043Z,35.50
2023-04-22T17:40:04.411Z,36.60
2023-04-22T17:42:44.602Z,37.40
2023-04-22T17:45:13.334Z,38.30
2023-04-22T17:47:40.998Z,39.20
2023-04-22T17:50:08.677Z,39.70
2023-04-22T17:52:36.430Z,40.40
2023-04-22T17:55:03.849Z,41.70
2023-04-22T17:57:31.819Z,41.30
2023-04-22T17:59:59.145Z,42.00
2023-04-22T18:02:26.857Z,42.60
2023-04-22T18:04:54.288Z,43.10
2023-04-22T18:07:21.966Z,43.60
2023-04-22T18:09:49.655Z,44.00
2023-04-22T18:12:17.718Z,44.10
2023-04-22T18:14:44.918Z,44.50
2023-04-22T18:17:13.625Z,45.00
2023-04-22T18:19:41.367Z,45.20
2023-04-22T18:22:09.410Z,45.60
2023-04-22T18:24:36.695Z,46.20
2023-04-22T18:27:05.609Z,46.90
2023-04-22T18:29:33.032Z,47.00
2023-04-22T18:32:00.894Z,47.20
2023-04-22T18:34:29.188Z,47.80
2023-04-22T18:36:56.805Z,48.70
2023-04-22T18:39:25.428Z,48.90
2023-04-22T18:41:53.134Z,49.60
2023-04-22T18:44:20.933Z,50.10
2023-04-22T18:46:48.475Z,50.50
2023-04-22T18:49:15.679Z,50.20
2023-04-22T18:51:43.130Z,50.50
2023-04-22T18:54:10.555Z,51.00
2023-04-22T18:56:38.030Z,51.30
2023-04-22T18:59:05.996Z,51.80
2023-04-22T19:01:35.467Z,52.10
2023-04-22T19:04:10.484Z,52.40
2023-04-22T19:06:42.208Z,52.70
2023-04-22T19:09:11.271Z,53.00
2023-04-22T19:11:38.979Z,53.10
2023-04-22T19:14:06.424Z,53.50
2023-04-22T19:16:34.136Z,54.00
2023-04-22T19:19:01.450Z,54.30
2023-04-22T19:21:30.034Z,54.80
2023-04-22T19:23:59.342Z,55.30
2023-04-22T19:26:28.996Z,55.10
2023-04-22T19:28:57.500Z,55.60
2023-04-22T19:31:27.860Z,55.30
2023-04-22T19:33:55.361Z,55.60
2023-04-22T19:36:23.013Z,55.70
2023-04-22T19:38:50.261Z,55.90
2023-04-22T19:41:17.963Z,56.50
2023-04-22T19:43:46.110Z,56.70
2023-04-22T19:46:13.676Z,56.60
2023-04-22T19:48:41.156Z,56.80
2023-04-22T19:51:11.034Z,56.80
2023-04-22T19:53:41.191Z,57.00
2023-04-22T19:56:09.573Z,56.80
2023-04-22T19:58:37.689Z,56.90
2023-04-22T20:01:07.295Z,56.90
2023-04-22T20:03:35.544Z,56.90
2023-04-22T20:06:03.797Z,57.00
2023-04-22T20:08:31.997Z,57.00
2023-04-22T20:11:01.059Z,57.10
2023-04-22T20:13:28.513Z,58.80
2023-04-22T20:15:56.427Z,59.30
2023-04-22T20:18:24.002Z,59.40
2023-04-22T20:20:57.467Z,58.70
2023-04-22T20:23:26.643Z,56.90
2023-04-22T20:25:58.425Z,57.00
2023-04-22T20:28:46.411Z,56.50
2023-04-22T20:31:14.931Z,58.50
2023-04-22T20:33:42.692Z,56.40
2023-04-22T20:36:12.775Z,56.30
2023-04-22T20:38:40.920Z,56.20
2023-04-22T20:41:10.066Z,56.60
2023-04-22T20:43:37.554Z,56.10
2023-04-22T20:46:08.508Z,56.20
2023-04-22T20:48:35.995Z,56.20
2023-04-22T20:51:04.097Z,56.30
2023-04-22T20:53:32.059Z,56.50
2023-04-22T20:55:59.521Z,56.30
2023-04-22T20:58:28.108Z,56.50
2023-04-22T21:00:56.079Z,56.70
2023-04-22T21:03:24.856Z,56.90
2023-04-22T21:05:52.945Z,56.60
2023-04-22T21:08:25.041Z,56.80
2023-04-22T21:10:54.770Z,56.70
2023-04-22T21:13:23.129Z,57.10
2023-04-22T21:16:02.732Z,57.10
2023-04-22T21:18:34.300Z,57.10
2023-04-22T21:21:04.002Z,57.20
2023-04-22T21:23:31.997Z,57.60
2023-04-22T21:26:01.613Z,57.80
2023-04-22T21:28:29.503Z,57.50
2023-04-22T21:30:57.373Z,57.60
2023-04-22T21:33:25.714Z,57.80
2023-04-22T21:35:53.495Z,58.00
2023-04-22T21:38:22.303Z,58.10
2023-04-22T21:40:50.376Z,58.80
2023-04-22T21:43:18.508Z,58.20
2023-04-22T21:45:46.040Z,58.50
2023-04-22T21:48:16.492Z,58.70
2023-04-22T21:50:51.698Z,59.00
2023-04-22T21:53:20.660Z,59.00
2023-04-22T21:55:48.327Z,58.90
2023-04-22T21:58:15.603Z,59.10
2023-04-22T22:00:43.607Z,59.10
2023-04-22T22:03:12.689Z,59.20
2023-04-22T22:05:40.474Z,59.50
2023-04-22T22:08:08.302Z,59.60
2023-04-22T22:10:36.186Z,59.80
2023-04-22T22:13:03.346Z,59.80
2023-04-22T22:15:31.024Z,60.10
2023-04-22T22:17:59.469Z,60.20
2023-04-22T22:20:27.118Z,60.30
2023-04-22T22:22:54.403Z,60.30
2023-04-22T22:25:21.980Z,60.50
2023-04-22T22:27:49.544Z,60.80
2023-04-22T22:30:20.505Z,60.70
2023-04-22T22:32:47.998Z,60.80
2023-04-22T22:35:16.333Z,61.10
2023-04-22T22:37:44.679Z,61.60
2023-04-22T22:40:12.601Z,61.70
2023-04-22T22:42:40.397Z,61.80
2023-04-22T22:45:08.931Z,62.00
2023-04-22T22:47:36.550Z,62.20
2023-04-22T22:50:04.526Z,62.60
2023-04-22T22:52:32.205Z,62.90
2023-04-22T22:54:59.765Z,63.20
2023-04-22T22:57:27.236Z,63.40
2023-04-22T22:59:54.691Z,63.50
2023-04-22T23:02:22.126Z,63.60
2023-04-22T23:04:49.900Z,63.80
2023-04-22T23:07:18.629Z,64.40
2023-04-22T23:09:46.157Z,64.40
2023-04-22T23:12:13.400Z,64.80
2023-04-22T23:14:41.418Z,64.90
2023-04-22T23:17:09.000Z,65.20
2023-04-22T23:19:37.781Z,65.20
2023-04-22T23:22:06.888Z,65.20
2023-04-22T23:24:34.512Z,65.30
2023-04-22T23:27:02.209Z,65.60
2023-04-22T23:29:31.368Z,65.70
2023-04-22T23:32:02.471Z,65.70
2023-04-22T23:34:31.985Z,66.60
2023-04-22T23:37:01.010Z,67.10
2023-04-22T23:39:29.583Z,66.70
2023-04-22T23:41:57.049Z,66.50
2023-04-22T23:44:25.492Z,67.10
2023-04-22T23:46:52.771Z,67.20
2023-04-22T23:49:20.220Z,67.20
2023-04-22T23:51:47.409Z,67.70
2023-04-22T23:54:17.423Z,68.10
2023-04-22T23:56:45.041Z,68.00
2023-04-22T23:59:12.949Z,68.20
